Time;durP1;ratioP1;P1;durP2;ratioP2;P2;SDS_P1;SDS_P2;PMS_P1;PMS_P2;Temp;Humidity;BMP_temperature;BMP_pressure;BME280_temperature;BME280_humidity;BME280_pressure;Samples;Min_cycle;Max_cycle;Signal;HPM_P1;HPM_P2
2024/01/15 00:00:52;;;;;;;3.35;3.15;;;;;;;;;;5057360;28;20028;-35
2024/01/15 00:03:19;;;;;;;3.40;3.20;;;;;;;;;;5056779;28;20389;-31
2024/01/15 00:05:45;;;;;;;3.25;3.05;;;;;;;;;;5056700;28;20467;-28
2024/01/15 00:08:11;;;;;;;4.05;2.75;;;;;;;;;;5056744;28;20044;-34
2024/01/15 00:10:37;;;;;;;3.08;2.88;;;;;;;;;;5057220;28;20025;-30
2024/01/15 00:13:03;;;;;;;4.18;3.88;;;;;;;;;;5056774;28;20025;-31
2024/01/15 00:15:30;;;;;;;3.33;3.13;;;;;;;;;;5057093;28;20467;-29
2024/01/15 00:17:56;;;;;;;3.17;2.97;;;;;;;;;;5056466;28;20040;-28
2024/01/15 00:20:22;;;;;;;3.28;3.08;;;;;;;;;;5057059;28;20360;-30
2024/01/15 00:22:48;;;;;;;3.13;2.92;;;;;;;;;;5056299;28;20096;-31
2024/01/15 00:25:14;;;;;;;3.75;3.45;;;;;;;;;;5056858;28;20032;-31
2024/01/15 00:27:41;;;;;;;3.25;3.05;;;;;;;;;;5056333;28;20051;-31
2024/01/15 00:30:07;;;;;;;3.50;3.30;;;;;;;;;;5056251;28;20025;-30
2024/01/15 00:32:34;;;;;;;3.00;2.80;;;;;;;;;;5056464;28;20083;-32
2024/01/15 00:35:00;;;;;;;3.08;2.88;;;;;;;;;;5057261;28;20365;-30
2024/01/15 00:37:26;;;;;;;2.80;2.60;;;;;;;;;;5056133;28;20028;-28
2024/01/15 00:39:52;;;;;;;3.20;3.00;;;;;;;;;;5056217;28;20024;-31
2024/01/15 00:42:18;;;;;;;3.35;3.15;;;;;;;;;;5056265;28;20029;-31
2024/01/15 00:44:44;;;;;;;3.30;3.08;;;;;;;;;;5055930;28;20061;-31
2024/01/15 00:47:10;;;;;;;3.20;3.00;;;;;;;;;;5055987;28;20082;-32
2024/01/15 00:49:37;;;;;;;3.30;3.10;;;;;;;;;;5056193;28;20102;-30
2024/01/15 00:52:03;;;;;;;2.95;2.75;;;;;;;;;;5055759;28;20022;-28
2024/01/15 00:54:29;;;;;;;3.22;3.03;;;;;;;;;;5055800;28;20503;-28
2024/01/15 00:56:55;;;;;;;3.13;2.92;;;;;;;;;;5055669;28;20127;-32
2024/01/15 00:59:21;;;;;;;3.15;2.95;;;;;;;;;;5055725;28;20032;-31
2024/01/15 01:01:47;;;;;;;3.47;3.28;;;;;;;;;;5055874;28;20028;-32
2024/01/15 01:04:14;;;;;;;3.20;3.00;;;;;;;;;;5055442;28;20045;-31
2024/01/15 01:06:40;;;;;;;3.78;3.58;;;;;;;;;;5054620;28;20067;-31
2024/01/15 01:09:06;;;;;;;3.40;3.20;;;;;;;;;;5055804;28;20024;-32
2024/01/15 01:11:32;;;;;;;3.08;2.88;;;;;;;;;;5055515;28;20017;-26
2024/01/15 01:13:58;;;;;;;3.85;3.65;;;;;;;;;;5055321;28;20036;-32
2024/01/15 01:16:24;;;;;;;3.30;3.10;;;;;;;;;;5055955;28;20029;-33
2024/01/15 01:18:50;;;;;;;3.10;2.90;;;;;;;;;;5055313;28;20440;-31
2024/01/15 01:21:17;;;;;;;5.72;4.63;;;;;;;;;;5055589;28;20033;-31
2024/01/15 01:23:43;;;;;;;3.28;3.08;;;;;;;;;;5055157;28;20064;-34
2024/01/15 01:26:09;;;;;;;3.53;3.22;;;;;;;;;;5055141;28;20033;-32
2024/01/15 01:28:35;;;;;;;2.85;2.65;;;;;;;;;;5055157;28;20021;-26
2024/01/15 01:31:01;;;;;;;3.00;2.80;;;;;;;;;;5055683;28;20336;-32
2024/01/15 01:33:27;;;;;;;2.67;2.47;;;;;;;;;;5055058;28;20478;-28
2024/01/15 01:35:54;;;;;;;3.03;2.83;;;;;;;;;;5055026;28;20029;-36
2024/01/15 01:38:20;;;;;;;3.05;2.85;;;;;;;;;;5055285;28;20052;-30
2024/01/15 01:40:46;;;;;;;3.08;2.88;;;;;;;;;;5054907;28;20397;-29
2024/01/15 01:43:12;;;;;;;3.03;2.83;;;;;;;;;;5054976;28;20110;-30
2024/01/15 01:45:38;;;;;;;3.08;2.88;;;;;;;;;;5054808;28;20359;-28
2024/01/15 01:48:05;;;;;;;2.92;2.72;;;;;;;;;;5055415;28;20031;-26
2024/01/15 01:50:31;;;;;;;3.42;3.22;;;;;;;;;;5055306;28;20056;-29
2024/01/15 01:52:58;;;;;;;3.10;2.90;;;;;;;;;;5054589;28;20025;-27
2024/01/15 01:55:27;;;;;;;2.63;2.42;;;;;;;;;;5054795;28;20426;-26
2024/01/15 01:57:53;;;;;;;2.92;2.72;;;;;;;;;;5054997;28;20471;-30
2024/01/15 02:00:19;;;;;;;2.85;2.67;;;;;;;;;;5054952;28;20029;-33
2024/01/15 02:02:45;;;;;;;2.40;2.30;;;;;;;;;;5054596;28;20053;-29
2024/01/15 02:05:12;;;;;;;2.60;2.50;;;;;;;;;;5054397;28;20461;-28
2024/01/15 02:07:39;;;;;;;2.58;2.47;;;;;;;;;;5054568;28;20036;-30
2024/01/15 02:10:06;;;;;;;2.78;2.67;;;;;;;;;;5053639;28;20360;-33
2024/01/15 02:12:32;;;;;;;2.58;2.40;;;;;;;;;;5054442;28;20063;-28
2024/01/15 02:14:58;;;;;;;2.78;2.58;;;;;;;;;;5054575;28;20039;-31
2024/01/15 02:17:24;;;;;;;2.25;2.15;;;;;;;;;;5055058;28;20082;-32
2024/01/15 02:19:50;;;;;;;2.90;2.70;;;;;;;;;;5054416;28;20024;-30
2024/01/15 02:22:17;;;;;;;4.30;2.85;;;;;;;;;;5054636;28;20364;-30
2024/01/15 02:24:43;;;;;;;2.65;2.55;;;;;;;;;;5054590;28;20083;-30
2024/01/15 02:27:09;;;;;;;3.10;2.90;;;;;;;;;;5054964;28;20056;-28
2024/01/15 02:29:36;;;;;;;2.88;2.67;;;;;;;;;;5054391;28;20028;-27
2024/01/15 02:32:05;;;;;;;3.22;3.03;;;;;;;;;;5054325;28;20021;-27
2024/01/15 02:34:34;;;;;;;2.92;2.72;;;;;;;;;;5054283;28;20029;-31
2024/01/15 02:37:01;;;;;;;2.88;2.67;;;;;;;;;;5053395;28;20021;-30
2024/01/15 02:39:28;;;;;;;2.97;2.67;;;;;;;;;;5054294;28;20417;-30
2024/01/15 02:41:57;;;;;;;2.45;2.33;;;;;;;;;;5054212;28;20021;-30
2024/01/15 02:44:23;;;;;;;3.20;3.00;;;;;;;;;;5054474;28;20029;-29
2024/01/15 02:46:49;;;;;;;3.10;2.90;;;;;;;;;;5054112;28;20453;-27
2024/01/15 02:49:16;;;;;;;2.70;2.50;;;;;;;;;;5054233;28;20040;-27
2024/01/15 02:51:42;;;;;;;3.15;2.95;;;;;;;;;;5054150;28;20360;-30
2024/01/15 02:54:08;;;;;;;2.72;2.55;;;;;;;;;;5054423;28;20043;-30
2024/01/15 02:56:34;;;;;;;2.63;2.42;;;;;;;;;;5054482;28;20468;-33
2024/01/15 02:59:00;;;;;;;2.38;2.28;;;;;;;;;;5054375;28;20059;-32
2024/01/15 03:01:26;;;;;;;2.40;2.30;;;;;;;;;;5054106;28;20049;-33
2024/01/15 03:03:52;;;;;;;2.33;2.13;;;;;;;;;;5055946;28;20361;-27
2024/01/15 03:06:18;;;;;;;2.75;2.55;;;;;;;;;;5058087;28;20470;-28
2024/01/15 03:08:45;;;;;;;2.75;2.55;;;;;;;;;;5057827;28;20033;-29
2024/01/15 03:11:11;;;;;;;2.70;2.50;;;;;;;;;;5057791;28;20021;-32
2024/01/15 03:13:37;;;;;;;2.95;2.75;;;;;;;;;;5057679;28;20036;-35
2024/01/15 03:16:04;;;;;;;2.92;2.72;;;;;;;;;;5058275;28;20347;-31
2024/01/15 03:18:30;;;;;;;2.67;2.47;;;;;;;;;;5057907;28;20025;-31
2024/01/15 03:20:56;;;;;;;2.50;2.30;;;;;;;;;;5057870;28;20086;-30
2024/01/15 03:23:22;;;;;;;3.00;2.80;;;;;;;;;;5057509;28;20167;-31
2024/01/15 03:25:49;;;;;;;2.33;2.22;;;;;;;;;;5057480;28;20053;-28
2024/01/15 03:28:15;;;;;;;3.22;3.03;;;;;;;;;;5057479;28;20444;-31
2024/01/15 03:30:41;;;;;;;2.60;2.45;;;;;;;;;;5057673;28;20112;-31
2024/01/15 03:33:07;;;;;;;2.72;2.58;;;;;;;;;;5057577;28;20032;-32
2024/01/15 03:35:34;;;;;;;2.80;2.63;;;;;;;;;;5057833;28;20452;-35
2024/01/15 03:38:00;;;;;;;2.60;2.50;;;;;;;;;;5057323;28;20419;-30
2024/01/15 03:40:26;;;;;;;2.75;2.55;;;;;;;;;;5057567;28;20112;-30
2024/01/15 03:42:52;;;;;;;2.75;2.55;;;;;;;;;;5057402;28;20355;-30
2024/01/15 03:45:18;;;;;;;2.30;2.20;;;;;;;;;;5057382;28;20448;-29
2024/01/15 03:47:44;;;;;;;3.28;3.08;;;;;;;;;;5057097;28;20040;-30
2024/01/15 03:50:10;;;;;;;2.58;2.47;;;;;;;;;;5057335;28;20049;-32
2024/01/15 03:52:37;;;;;;;2.47;2.28;;;;;;;;;;5057002;28;20074;-30
2024/01/15 03:55:04;;;;;;;2.53;2.42;;;;;;;;;;5057235;28;20100;-31
2024/01/15 03:57:30;;;;;;;2.50;2.40;;;;;;;;;;5056904;28;20112;-29
2024/01/15 03:59:56;;;;;;;2.33;2.22;;;;;;;;;;5056868;28;20044;-28
2024/01/15 04:02:23;;;;;;;2.40;2.30;;;;;;;;;;5056976;28;20025;-28
2024/01/15 04:04:49;;;;;;;2.28;2.17;;;;;;;;;;5056542;28;20057;-30
2024/01/15 04:07:15;;;;;;;2.70;2.50;;;;;;;;;;5057018;28;20025;-31
2024/01/15 04:09:41;;;;;;;3.08;2.88;;;;;;;;;;5056684;28;20032;-30
2024/01/15 04:12:07;;;;;;;2.38;2.17;;;;;;;;;;5056581;28;20352;-30
2024/01/15 04:14:33;;;;;;;2.63;2.42;;;;;;;;;;5056396;28;20021;-31
2024/01/15 04:16:59;;;;;;;2.72;2.53;;;;;;;;;;5056571;28;20053;-26
2024/01/15 04:19:25;;;;;;;3.22;2.92;;;;;;;;;;5056449;28;20029;-30
2024/01/15 04:21:52;;;;;;;3.00;2.80;;;;;;;;;;5056441;28;20333;-32
2024/01/15 04:24:18;;;;;;;2.67;2.47;;;;;;;;;;5056619;28;20028;-31
2024/01/15 04:26:44;;;;;;;2.47;2.38;;;;;;;;;;5056416;28;20045;-29
2024/01/15 04:29:10;;;;;;;2.20;2.10;;;;;;;;;;5056349;28;20313;-32
2024/01/15 04:31:36;;;;;;;2.60;2.40;;;;;;;;;;5056841;28;20029;-31
2024/01/15 04:34:02;;;;;;;2.65;2.45;;;;;;;;;;5056210;28;20408;-28
2024/01/15 04:36:28;;;;;;;2.25;2.15;;;;;;;;;;5056186;28;20449;-28
2024/01/15 04:38:55;;;;;;;2.58;2.38;;;;;;;;;;5056149;28;20522;-31
2024/01/15 04:41:21;;;;;;;2.78;2.58;;;;;;;;;;5056330;28;20025;-27
2024/01/15 04:43:47;;;;;;;2.75;2.55;;;;;;;;;;5055989;28;20033;-27
2024/01/15 04:46:13;;;;;;;2.55;2.35;;;;;;;;;;5056127;28;20377;-29
2024/01/15 04:48:39;;;;;;;2.42;2.30;;;;;;;;;;5055939;28;20029;-27
2024/01/15 04:51:06;;;;;;;2.30;2.20;;;;;;;;;;5056115;28;20106;-30
2024/01/15 04:53:32;;;;;;;2.58;2.47;;;;;;;;;;5055595;28;20052;-33
2024/01/15 04:55:58;;;;;;;2.85;2.65;;;;;;;;;;5055577;28;20040;-33
2024/01/15 04:58:27;;;;;;;2.60;2.38;;;;;;;;;;5055999;28;20033;-28
2024/01/15 05:00:54;;;;;;;1.92;1.83;;;;;;;;;;5055559;28;20025;-28
2024/01/15 05:03:20;;;;;;;2.42;2.22;;;;;;;;;;5055505;28;20028;-32
2024/01/15 05:05:46;;;;;;;2.50;2.30;;;;;;;;;;5055723;28;20025;-31
2024/01/15 05:08:12;;;;;;;2.10;2.00;;;;;;;;;;5055387;28;20021;-31
2024/01/15 05:10:38;;;;;;;2.60;2.40;;;;;;;;;;5055283;28;20102;-30
2024/01/15 05:13:05;;;;;;;2.00;1.90;;;;;;;;;;5055217;28;20421;-34
2024/01/15 05:15:31;;;;;;;2.58;2.38;;;;;;;;;;5055145;28;20146;-30
2024/01/15 05:17:57;;;;;;;3.22;2.85;;;;;;;;;;5055165;28;20107;-29
2024/01/15 05:20:23;;;;;;;2.55;2.35;;;;;;;;;;5055693;28;20028;-27
2024/01/15 05:22:51;;;;;;;2.85;2.40;;;;;;;;;;5055273;28;20352;-29
2024/01/15 05:25:17;;;;;;;3.50;1.88;;;;;;;;;;5055078;28;20364;-29
2024/01/15 05:27:43;;;;;;;2.58;2.40;;;;;;;;;;5054495;28;20029;-30
2024/01/15 05:30:10;;;;;;;4.28;2.55;;;;;;;;;;5055196;28;20455;-31
2024/01/15 05:32:36;;;;;;;2.50;2.30;;;;;;;;;;5054761;28;20035;-33
2024/01/15 05:35:03;;;;;;;3.22;2.92;;;;;;;;;;5054859;28;20025;-29
2024/01/15 05:37:29;;;;;;;4.03;3.08;;;;;;;;;;5055123;28;20039;-35
2024/01/15 05:39:55;;;;;;;2.45;2.33;;;;;;;;;;5055060;28;20029;-33
2024/01/15 05:42:21;;;;;;;3.75;2.70;;;;;;;;;;5053776;28;20035;-29
2024/01/15 05:44:47;;;;;;;3.05;1.92;;;;;;;;;;5055000;28;20095;-28
2024/01/15 05:47:14;;;;;;;2.83;2.00;;;;;;;;;;5054742;28;20021;-36
2024/01/15 05:49:40;;;;;;;3.17;2.42;;;;;;;;;;5054928;28;20024;-32
2024/01/15 05:52:07;;;;;;;4.10;2.47;;;;;;;;;;5054671;28;20013;-32
2024/01/15 05:54:33;;;;;;;2.70;2.50;;;;;;;;;;5054618;28;20117;-31
2024/01/15 05:57:00;;;;;;;3.05;2.85;;;;;;;;;;5054742;28;20041;-30
2024/01/15 05:59:26;;;;;;;2.33;2.13;;;;;;;;;;5054782;28;20019;-27
2024/01/15 06:04:28;;;;;;;2.30;2.05;;;;;;;;;;4742981;26;20132;-29
2024/01/15 06:06:54;;;;;;;5.43;3.03;;;;;;;;;;5014845;28;20445;-29
2024/01/15 06:09:21;;;;;;;5.28;2.33;;;;;;;;;;5014765;28;20034;-31
2024/01/15 06:11:47;;;;;;;5.45;3.03;;;;;;;;;;5013684;28;20024;-33
2024/01/15 06:14:13;;;;;;;7.97;2.47;;;;;;;;;;5014992;28;20337;-31
2024/01/15 06:16:39;;;;;;;3.83;2.20;;;;;;;;;;5014989;28;20344;-30
2024/01/15 06:19:06;;;;;;;3.85;1.95;;;;;;;;;;5014572;28;20121;-31
2024/01/15 06:21:33;;;;;;;3.90;2.13;;;;;;;;;;5014616;28;20032;-29
2024/01/15 06:24:02;;;;;;;3.95;2.20;;;;;;;;;;5014793;28;20022;-28
2024/01/15 06:26:29;;;;;;;5.60;2.70;;;;;;;;;;5014787;28;20101;-27
2024/01/15 06:28:56;;;;;;;2.47;2.28;;;;;;;;;;4997306;28;20113;-31
2024/01/15 06:31:22;;;;;;;10.85;2.58;;;;;;;;;;5014723;28;20525;-31
2024/01/15 06:33:49;;;;;;;5.47;2.65;;;;;;;;;;5014507;28;20092;-31
2024/01/15 06:36:16;;;;;;;6.88;3.13;;;;;;;;;;5014898;28;20045;-31
2024/01/15 06:38:44;;;;;;;5.28;2.53;;;;;;;;;;5018089;28;20030;-33
2024/01/15 06:41:29;;;;;;;4.05;2.60;;;;;;;;;;5018320;28;20037;-29
2024/01/15 06:43:59;;;;;;;9.07;2.80;;;;;;;;;;5018338;28;20473;-32
2024/01/15 06:46:25;;;;;;;5.03;2.65;;;;;;;;;;5018629;28;20038;-30
2024/01/15 06:48:52;;;;;;;10.20;2.35;;;;;;;;;;5018403;28;20018;-30
2024/01/15 06:51:19;;;;;;;9.75;3.22;;;;;;;;;;5018424;28;20049;-32
2024/01/15 06:53:45;;;;;;;10.10;2.63;;;;;;;;;;5001089;28;20160;-31
2024/01/15 06:56:11;;;;;;;2.33;2.10;;;;;;;;;;5018757;28;20053;-33
2024/01/15 06:58:38;;;;;;;5.22;2.22;;;;;;;;;;5018244;28;20458;-32
2024/01/15 07:01:05;;;;;;;4.47;3.03;;;;;;;;;;5001131;28;20065;-29
2024/01/15 07:03:32;;;;;;;4.45;2.47;;;;;;;;;;5017590;28;20061;-31
2024/01/15 07:06:02;;;;;;;4.15;2.55;;;;;;;;;;5018277;28;20030;-33
2024/01/15 07:08:29;;;;;;;7.10;2.50;;;;;;;;;;5018288;28;20025;-30
2024/01/15 07:10:55;;;;;;;6.47;2.75;;;;;;;;;;5018610;28;20152;-31
2024/01/15 07:13:25;;;;;;;4.97;2.85;;;;;;;;;;5000524;28;20022;-32
2024/01/15 07:15:55;;;;;;;6.75;2.53;;;;;;;;;;5017849;28;20025;-31
2024/01/15 07:18:24;;;;;;;5.43;2.42;;;;;;;;;;5018121;28;20121;-31
2024/01/15 07:20:51;;;;;;;8.70;2.70;;;;;;;;;;5017641;28;20465;-29
2024/01/15 07:23:18;;;;;;;2.88;2.65;;;;;;;;;;5000242;28;20058;-29
2024/01/15 07:25:44;;;;;;;9.02;3.17;;;;;;;;;;5000298;28;20408;-30
2024/01/15 07:28:11;;;;;;;4.43;2.17;;;;;;;;;;5017898;28;20026;-30
2024/01/15 07:30:41;;;;;;;3.63;2.30;;;;;;;;;;5000342;28;20457;-28
2024/01/15 07:33:07;;;;;;;2.20;1.98;;;;;;;;;;5017412;28;20036;-31
2024/01/15 07:35:33;;;;;;;6.30;2.35;;;;;;;;;;5017352;28;20044;-28
2024/01/15 07:38:00;;;;;;;6.13;2.38;;;;;;;;;;5000079;28;20456;-30
2024/01/15 07:40:26;;;;;;;8.98;2.60;;;;;;;;;;5017853;28;20030;-31
2024/01/15 07:42:52;;;;;;;2.47;2.17;;;;;;;;;;5000698;28;20030;-28
2024/01/15 07:45:18;;;;;;;4.68;2.20;;;;;;;;;;5017155;28;20471;-31
2024/01/15 07:47:44;;;;;;;4.32;2.25;;;;;;;;;;5017481;28;20057;-31
2024/01/15 07:50:11;;;;;;;3.65;2.55;;;;;;;;;;5016575;28;20032;-29
2024/01/15 07:52:37;;;;;;;3.67;2.28;;;;;;;;;;5017059;28;20018;-31
2024/01/15 07:55:05;;;;;;;3.85;2.30;;;;;;;;;;5000090;28;20033;-27
2024/01/15 07:57:31;;;;;;;3.15;2.42;;;;;;;;;;5017600;28;20109;-31
2024/01/15 07:59:57;;;;;;;5.93;2.28;;;;;;;;;;5017435;28;20025;-30
2024/01/15 08:02:23;;;;;;;3.88;2.50;;;;;;;;;;5017188;28;20105;-30
2024/01/15 08:04:49;;;;;;;6.25;2.85;;;;;;;;;;5016741;28;20468;-27
2024/01/15 08:07:16;;;;;;;4.88;2.28;;;;;;;;;;5017096;28;20109;-29
2024/01/15 08:09:42;;;;;;;10.20;2.45;;;;;;;;;;5017121;28;20034;-30
2024/01/15 08:12:09;;;;;;;3.92;2.97;;;;;;;;;;5016669;28;20022;-31
2024/01/15 08:14:36;;;;;;;5.05;2.60;;;;;;;;;;5017033;28;20109;-30
2024/01/15 08:17:02;;;;;;;3.42;2.53;;;;;;;;;;5016699;28;20026;-28
2024/01/15 08:19:28;;;;;;;6.68;2.55;;;;;;;;;;5016466;28;20082;-30
2024/01/15 08:21:54;;;;;;;4.55;2.72;;;;;;;;;;5016534;28;20456;-32
2024/01/15 08:24:20;;;;;;;5.72;2.67;;;;;;;;;;5016677;28;20404;-32
2024/01/15 08:26:46;;;;;;;7.80;2.85;;;;;;;;;;4999300;28;20364;-31
2024/01/15 08:29:13;;;;;;;4.88;2.03;;;;;;;;;;4999252;28;20022;-30
2024/01/15 08:31:39;;;;;;;6.50;2.58;;;;;;;;;;5016939;28;20018;-30
2024/01/15 08:34:05;;;;;;;5.15;2.72;;;;;;;;;;5016568;28;20081;-31
2024/01/15 08:36:31;;;;;;;10.45;2.80;;;;;;;;;;5016633;28;20030;-30
2024/01/15 08:38:57;;;;;;;10.45;2.20;;;;;;;;;;5016222;28;20029;-29
2024/01/15 08:41:24;;;;;;;3.90;2.10;;;;;;;;;;5016876;28;20026;-30
2024/01/15 08:43:50;;;;;;;12.40;2.90;;;;;;;;;;5016305;28;20053;-33
2024/01/15 08:46:17;;;;;;;16.45;2.95;;;;;;;;;;5016378;28;20435;-31
2024/01/15 08:48:43;;;;;;;4.68;2.53;;;;;;;;;;5016448;28;20022;-30
2024/01/15 08:51:09;;;;;;;3.53;2.22;;;;;;;;;;5016125;28;20037;-29
2024/01/15 08:53:35;;;;;;;2.90;2.53;;;;;;;;;;5015988;28;20030;-31
2024/01/15 08:56:02;;;;;;;4.22;2.35;;;;;;;;;;5015966;28;20030;-32
2024/01/15 08:58:28;;;;;;;7.43;3.10;;;;;;;;;;5015929;28;20022;-33
2024/01/15 09:00:54;;;;;;;4.25;2.25;;;;;;;;;;5015928;28;20113;-32
2024/01/15 09:03:21;;;;;;;4.78;2.10;;;;;;;;;;5015712;28;20133;-29
2024/01/15 09:05:49;;;;;;;11.20;2.70;;;;;;;;;;5016227;28;20041;-32
2024/01/15 09:08:16;;;;;;;3.88;2.78;;;;;;;;;;5015773;28;20026;-32
2024/01/15 09:10:42;;;;;;;9.50;2.30;;;;;;;;;;5015989;28;20364;-30
2024/01/15 09:13:08;;;;;;;6.53;2.95;;;;;;;;;;5015577;28;20076;-30
2024/01/15 09:15:34;;;;;;;1.92;1.75;;;;;;;;;;5015773;28;20040;-29
2024/01/15 09:18:02;;;;;;;4.95;2.78;;;;;;;;;;5015549;28;20034;-30
2024/01/15 09:20:28;;;;;;;5.22;2.55;;;;;;;;;;5015774;28;20356;-29
2024/01/15 09:22:54;;;;;;;5.43;2.63;;;;;;;;;;5015646;28;20333;-29
2024/01/15 09:25:20;;;;;;;4.65;2.17;;;;;;;;;;5015389;28;20034;-32
2024/01/15 09:27:47;;;;;;;7.30;2.47;;;;;;;;;;5015412;28;20036;-30
2024/01/15 09:30:13;;;;;;;9.15;2.35;;;;;;;;;;4998020;28;20026;-29
2024/01/15 09:32:39;;;;;;;3.60;2.10;;;;;;;;;;5015599;28;20098;-31
2024/01/15 09:35:06;;;;;;;12.73;2.40;;;;;;;;;;5015749;28;20041;-31
2024/01/15 09:37:32;;;;;;;7.63;2.38;;;;;;;;;;5015575;28;20025;-30
2024/01/15 09:39:58;;;;;;;13.07;2.53;;;;;;;;;;5015594;28;20092;-27
2024/01/15 09:42:25;;;;;;;6.65;1.95;;;;;;;;;;5015191;28;20030;-31
2024/01/15 09:44:52;;;;;;;3.80;2.40;;;;;;;;;;5015687;28;20048;-33
2024/01/15 09:47:18;;;;;;;5.35;2.35;;;;;;;;;;5015229;28;20026;-28
2024/01/15 09:49:45;;;;;;;2.95;2.58;;;;;;;;;;4998330;28;20028;-31
2024/01/15 09:52:11;;;;;;;3.35;2.28;;;;;;;;;;5015245;28;20041;-30
2024/01/15 09:54:39;;;;;;;3.70;2.30;;;;;;;;;;5014924;28;20101;-29
2024/01/15 09:57:06;;;;;;;8.43;2.30;;;;;;;;;;4997654;28;20419;-29
2024/01/15 09:59:32;;;;;;;10.00;1.92;;;;;;;;;;5014892;28;20149;-31
2024/01/15 10:01:59;;;;;;;8.40;2.72;;;;;;;;;;5015039;28;20022;-28
2024/01/15 10:04:25;;;;;;;10.32;2.25;;;;;;;;;;5014786;28;20534;-31
2024/01/15 10:06:52;;;;;;;6.20;2.40;;;;;;;;;;4997498;28;20034;-33
2024/01/15 10:09:18;;;;;;;2.72;1.98;;;;;;;;;;5014896;28;20050;-30
2024/01/15 10:11:45;;;;;;;4.28;1.90;;;;;;;;;;5014655;28;20471;-29
2024/01/15 10:14:15;;;;;;;6.80;2.05;;;;;;;;;;5014833;28;20022;-30
2024/01/15 10:16:41;;;;;;;9.93;2.15;;;;;;;;;;5014825;28;20083;-31
2024/01/15 10:19:10;;;;;;;4.47;2.35;;;;;;;;;;5014732;28;20044;-32
2024/01/15 10:21:37;;;;;;;5.93;2.20;;;;;;;;;;4997416;28;20033;-32
2024/01/15 10:24:04;;;;;;;5.65;2.17;;;;;;;;;;4997295;28;20030;-31
2024/01/15 10:26:30;;;;;;;5.00;1.98;;;;;;;;;;4997368;28;20036;-31
2024/01/15 10:28:57;;;;;;;1.75;1.63;;;;;;;;;;5014597;28;20108;-31
2024/01/15 10:31:23;;;;;;;3.22;2.20;;;;;;;;;;5014586;28;20018;-32
2024/01/15 10:33:49;;;;;;;2.47;1.67;;;;;;;;;;5014491;28;20348;-29
2024/01/15 10:36:16;;;;;;;2.00;1.90;;;;;;;;;;5014755;28;20040;-29
2024/01/15 10:38:43;;;;;;;3.75;2.22;;;;;;;;;;5014699;28;20037;-32
2024/01/15 10:41:10;;;;;;;6.78;2.47;;;;;;;;;;5014294;28;20036;-31
2024/01/15 10:43:36;;;;;;;4.03;2.35;;;;;;;;;;5014309;28;20058;-28
2024/01/15 10:46:03;;;;;;;5.13;1.98;;;;;;;;;;4997250;28;20030;-29
2024/01/15 10:48:30;;;;;;;9.00;2.28;;;;;;;;;;5014515;28;20018;-30
2024/01/15 10:51:00;;;;;;;5.18;1.70;;;;;;;;;;5014400;28;20022;-30
2024/01/15 10:53:27;;;;;;;8.38;2.15;;;;;;;;;;5014650;28;20034;-30
2024/01/15 10:55:54;;;;;;;6.93;2.50;;;;;;;;;;5014627;28;20132;-28
2024/01/15 10:58:24;;;;;;;5.75;2.30;;;;;;;;;;5014189;28;20381;-30
2024/01/15 11:00:50;;;;;;;4.88;2.00;;;;;;;;;;5014541;28;20030;-30
2024/01/15 11:03:17;;;;;;;4.53;2.17;;;;;;;;;;5013924;28;20193;-30
2024/01/15 11:05:44;;;;;;;2.38;2.13;;;;;;;;;;5014173;28;20029;-30
2024/01/15 11:08:13;;;;;;;3.35;2.05;;;;;;;;;;5014100;28;20079;-32
2024/01/15 11:10:41;;;;;;;5.97;3.13;;;;;;;;;;5014363;28;20145;-29
2024/01/15 11:13:11;;;;;;;4.43;2.78;;;;;;;;;;5014521;28;20018;-29
2024/01/15 11:15:57;;;;;;;6.10;2.17;;;;;;;;;;4996939;28;20030;-30
2024/01/15 11:18:23;;;;;;;6.00;2.53;;;;;;;;;;4996972;28;20125;-29
2024/01/15 11:21:08;;;;;;;4.28;2.53;;;;;;;;;;5013389;28;20112;-32
2024/01/15 11:23:44;;;;;;;4.05;2.25;;;;;;;;;;4996837;28;20021;-31
2024/01/15 11:26:28;;;;;;;14.48;2.40;;;;;;;;;;5017757;28;20026;-31
2024/01/15 11:29:03;;;;;;;6.57;2.50;;;;;;;;;;5000253;28;20339;-31
2024/01/15 11:31:29;;;;;;;11.57;2.28;;;;;;;;;;5017884;28;20069;-33
2024/01/15 11:33:55;;;;;;;21.50;3.15;;;;;;;;;;5017388;28;20041;-30
2024/01/15 11:36:44;;;;;;;31.05;3.67;;;;;;;;;;5017559;28;20033;-30
2024/01/15 11:39:28;;;;;;;8.77;4.07;;;;;;;;;;5000186;28;20104;-36
2024/01/15 11:42:03;;;;;;;15.45;2.70;;;;;;;;;;5017356;28;20102;-27
2024/01/15 11:44:29;;;;;;;8.02;2.95;;;;;;;;;;5000013;28;20080;-30
2024/01/15 11:46:58;;;;;;;8.68;2.40;;;;;;;;;;5017130;28;20038;-31
2024/01/15 11:49:42;;;;;;;9.57;2.67;;;;;;;;;;5017503;28;20018;-30
2024/01/15 11:52:10;;;;;;;15.38;3.45;;;;;;;;;;5017260;28;20061;-27
2024/01/15 11:54:38;;;;;;;15.00;3.28;;;;;;;;;;5017458;28;20159;-26
2024/01/15 11:57:13;;;;;;;9.20;2.80;;;;;;;;;;4999647;28;20112;-30
2024/01/15 11:59:40;;;;;;;9.35;2.05;;;;;;;;;;5016967;28;20033;-30
2024/01/15 12:02:06;;;;;;;13.98;2.67;;;;;;;;;;5016829;28;20026;-30
2024/01/15 12:04:33;;;;;;;5.53;3.17;;;;;;;;;;5016807;28;20200;-26
2024/01/15 12:06:59;;;;;;;12.18;2.00;;;;;;;;;;5017243;28;20018;-31
2024/01/15 12:09:27;;;;;;;2.35;1.80;;;;;;;;;;4999745;28;20026;-29
2024/01/15 12:11:59;;;;;;;4.55;1.75;;;;;;;;;;4999469;28;20054;-27
2024/01/15 12:14:27;;;;;;;4.35;2.90;;;;;;;;;;4999516;28;20218;-29
2024/01/15 12:16:53;;;;;;;6.00;2.10;;;;;;;;;;5016846;28;20021;-31
2024/01/15 12:19:19;;;;;;;3.50;2.20;;;;;;;;;;5017207;28;20045;-29
2024/01/15 12:21:46;;;;;;;3.83;1.92;;;;;;;;;;5017070;28;20034;-27
2024/01/15 12:24:12;;;;;;;2.03;1.83;;;;;;;;;;5016642;28;20084;-28
2024/01/15 12:26:38;;;;;;;6.35;1.75;;;;;;;;;;5016440;28;20022;-29
2024/01/15 12:29:07;;;;;;;6.88;2.53;;;;;;;;;;5016433;28;20022;-40
2024/01/15 12:31:33;;;;;;;7.90;2.47;;;;;;;;;;5016628;28;20025;-28
2024/01/15 12:33:59;;;;;;;9.57;2.40;;;;;;;;;;4998973;28;20084;-29
2024/01/15 12:36:27;;;;;;;5.20;2.00;;;;;;;;;;5016214;28;20026;-32
2024/01/15 12:38:53;;;;;;;8.30;2.20;;;;;;;;;;5016765;28;20060;-30
2024/01/15 12:41:19;;;;;;;8.65;3.30;;;;;;;;;;5016292;28;20401;-29
2024/01/15 12:43:45;;;;;;;8.32;2.35;;;;;;;;;;5016452;28;20061;-30
2024/01/15 12:46:11;;;;;;;5.85;2.38;;;;;;;;;;5016079;28;20037;-30
2024/01/15 12:48:37;;;;;;;6.22;2.50;;;;;;;;;;5016089;28;20025;-29
2024/01/15 12:51:06;;;;;;;12.20;4.45;;;;;;;;;;5016314;28;20430;-32
2024/01/15 12:53:32;;;;;;;8.18;2.35;;;;;;;;;;5016205;28;20052;-30
2024/01/15 12:55:58;;;;;;;11.48;2.75;;;;;;;;;;5015950;28;20042;-32
2024/01/15 12:58:25;;;;;;;21.10;3.38;;;;;;;;;;5015792;28;20114;-30
2024/01/15 13:00:51;;;;;;;7.30;2.45;;;;;;;;;;5016043;28;20037;-30
2024/01/15 13:03:18;;;;;;;10.82;2.83;;;;;;;;;;5015587;28;20050;-31
2024/01/15 13:05:45;;;;;;;3.38;2.17;;;;;;;;;;5015707;28;20049;-31
2024/01/15 13:08:11;;;;;;;6.03;1.95;;;;;;;;;;5015764;28;20045;-30
2024/01/15 13:10:37;;;;;;;3.53;1.80;;;;;;;;;;5015641;28;20018;-33
2024/01/15 13:13:03;;;;;;;4.82;2.25;;;;;;;;;;5015730;28;20112;-27
2024/01/15 13:15:29;;;;;;;3.05;2.00;;;;;;;;;;5015523;28;20030;-31
2024/01/15 13:17:56;;;;;;;2.90;1.85;;;;;;;;;;5016096;28;20464;-30
2024/01/15 13:20:22;;;;;;;4.07;2.20;;;;;;;;;;5016012;28;20390;-29
2024/01/15 13:22:48;;;;;;;9.10;1.73;;;;;;;;;;5015236;28;20484;-31
2024/01/15 13:25:15;;;;;;;3.33;2.65;;;;;;;;;;4997866;28;20526;-30
2024/01/15 13:27:42;;;;;;;4.20;2.10;;;;;;;;;;5015482;28;20353;-30
2024/01/15 13:30:08;;;;;;;6.32;2.05;;;;;;;;;;5015842;28;20029;-31
2024/01/15 13:32:35;;;;;;;5.80;2.20;;;;;;;;;;5015541;28;20033;-30
2024/01/15 13:35:02;;;;;;;2.70;1.83;;;;;;;;;;5015326;28;20124;-28
2024/01/15 13:37:28;;;;;;;6.20;2.00;;;;;;;;;;5015219;28;20030;-32
2024/01/15 13:39:54;;;;;;;7.78;2.28;;;;;;;;;;5015428;28;20475;-27
2024/01/15 13:42:24;;;;;;;7.13;2.47;;;;;;;;;;5015223;28;20026;-30
2024/01/15 13:44:50;;;;;;;12.60;2.20;;;;;;;;;;5015037;28;20108;-31
2024/01/15 13:47:20;;;;;;;7.60;2.15;;;;;;;;;;5014448;28;20026;-29
2024/01/15 13:49:46;;;;;;;2.58;1.85;;;;;;;;;;5015386;28;20092;-30
2024/01/15 13:52:12;;;;;;;7.10;2.40;;;;;;;;;;4997584;28;20437;-29
2024/01/15 13:54:39;;;;;;;4.30;1.77;;;;;;;;;;5015263;28;20352;-28
2024/01/15 13:57:05;;;;;;;4.15;1.80;;;;;;;;;;5014829;28;20096;-30
2024/01/15 13:59:32;;;;;;;4.15;2.40;;;;;;;;;;5015098;28;20057;-28
2024/01/15 14:01:58;;;;;;;5.53;2.20;;;;;;;;;;5015232;28;20049;-30
2024/01/15 14:04:24;;;;;;;3.90;2.22;;;;;;;;;;5014795;28;20049;-30
2024/01/15 14:06:52;;;;;;;4.63;1.98;;;;;;;;;;5014867;28;20053;-31
2024/01/15 14:09:18;;;;;;;5.45;2.20;;;;;;;;;;4997467;28;20431;-31
2024/01/15 14:11:45;;;;;;;3.50;1.83;;;;;;;;;;5014791;28;20110;-30
2024/01/15 14:14:11;;;;;;;8.57;2.40;;;;;;;;;;5014812;28;20076;-27
2024/01/15 14:16:37;;;;;;;8.13;1.92;;;;;;;;;;4997479;28;20037;-28
2024/01/15 14:19:04;;;;;;;5.32;2.50;;;;;;;;;;5014975;28;20048;-29
2024/01/15 14:21:30;;;;;;;6.18;2.45;;;;;;;;;;5014980;28;20033;-27
2024/01/15 14:23:56;;;;;;;6.38;2.10;;;;;;;;;;5014893;28;20025;-30
2024/01/15 14:26:22;;;;;;;4.72;2.60;;;;;;;;;;5015043;28;20037;-30
2024/01/15 14:28:48;;;;;;;9.40;2.80;;;;;;;;;;5014744;28;20026;-29
2024/01/15 14:31:15;;;;;;;6.30;1.83;;;;;;;;;;5014636;28;20022;-31
2024/01/15 14:33:41;;;;;;;3.30;1.63;;;;;;;;;;5014849;28;20374;-30
2024/01/15 14:36:07;;;;;;;1.83;1.73;;;;;;;;;;5014699;28;20091;-32
2024/01/15 14:38:34;;;;;;;3.42;1.95;;;;;;;;;;5014582;28;20109;-31
2024/01/15 14:41:01;;;;;;;7.72;2.40;;;;;;;;;;5014523;28;20037;-30
2024/01/15 14:43:27;;;;;;;10.77;2.63;;;;;;;;;;5014607;28;20033;-31